Time;durP1;ratioP1;P1;durP2;ratioP2;P2;SDS_P1;SDS_P2;PMS_P1;PMS_P2;Temp;Humidity;BMP_temperature;BMP_pressure;BME280_temperature;BME280_humidity;BME280_pressure;Samples;Min_cycle;Max_cycle;Signal;HPM_P1;HPM_P2
2022/10/23 00:01:29;;;;;;;;;;;19.80;92.00;;;;;;5109260;28;20041;-80
2022/10/23 00:03:57;;;;;;;;;;;19.80;93.60;;;;;;5094570;28;20372;-79
2022/10/23 00:06:23;;;;;;;;;;;19.70;94.20;;;;;;5114238;28;20002;-78
2022/10/23 00:08:50;;;;;;;;;;;19.50;94.20;;;;;;5102361;28;19928;-76
2022/10/23 00:11:18;;;;;;;;;;;19.50;95.10;;;;;;5110434;28;20277;-76
2022/10/23 00:13:45;;;;;;;;;;;19.40;95.10;;;;;;5114255;28;19958;-75
2022/10/23 00:16:11;;;;;;;;;;;19.40;95.70;;;;;;5113866;28;19907;-77
2022/10/23 00:18:38;;;;;;;;;;;19.40;95.80;;;;;;5111660;28;19960;-76
2022/10/23 00:21:05;;;;;;;;;;;19.50;96.20;;;;;;5107112;28;19919;-75
2022/10/23 00:23:32;;;;;;;;;;;19.50;96.40;;;;;;5129418;27;20301;-75
2022/10/23 00:25:59;;;;;;;;;;;19.50;96.40;;;;;;5129906;27;19908;-74
2022/10/23 00:28:25;;;;;;;;;;;19.40;96.40;;;;;;5115430;27;19911;-81
2022/10/23 00:30:52;;;;;;;;;;;19.40;96.50;;;;;;5102890;28;19996;-79
2022/10/23 00:33:19;;;;;;;;;;;19.50;96.60;;;;;;5113346;28;19918;-76
2022/10/23 00:35:45;;;;;;;;;;;19.40;96.50;;;;;;5110899;28;20357;-75
2022/10/23 00:38:12;;;;;;;;;;;19.30;96.40;;;;;;5129257;27;19908;-78
2022/10/23 00:40:41;;;;;;;;;;;19.40;96.40;;;;;;5115525;27;20006;-77
2022/10/23 00:43:10;;;;;;;;;;;19.30;95.90;;;;;;5113550;28;19933;-78
2022/10/23 00:45:36;;;;;;;;;;;19.30;95.90;;;;;;5129034;27;19999;-76
2022/10/23 00:48:03;;;;;;;;;;;19.30;95.90;;;;;;5113641;28;19926;-77
2022/10/23 00:50:30;;;;;;;;;;;19.30;96.20;;;;;;5111696;27;19930;-80
2022/10/23 00:52:58;;;;;;;;;;;19.30;96.30;;;;;;5114953;27;19908;-81
2022/10/23 00:55:24;;;;;;;;;;;19.30;96.40;;;;;;5113736;28;19908;-81
2022/10/23 00:57:51;;;;;;;;;;;19.40;96.40;;;;;;5129306;27;19965;-81
2022/10/23 01:00:19;;;;;;;;;;;19.40;96.50;;;;;;5105086;28;20157;-84
2022/10/23 01:02:46;;;;;;;;;;;19.50;96.70;;;;;;5129846;27;19908;-71
2022/10/23 01:05:13;;;;;;;;;;;19.40;98.90;;;;;;5098815;28;19923;-71
2022/10/23 01:07:57;;;;;;;;;;;19.30;99.10;;;;;;5074043;28;19950;-71
2022/10/23 01:10:30;;;;;;;;;;;19.30;99.10;;;;;;5108345;28;19927;-71
2022/10/23 01:13:03;;;;;;;;;;;19.30;99.20;;;;;;5092296;28;19965;-73
2022/10/23 01:15:49;;;;;;;;;;;19.30;99.20;;;;;;5069210;28;20007;-75
2022/10/23 01:18:36;;;;;;;;;;;19.30;99.20;;;;;;5067746;28;19915;-75
2022/10/23 01:21:10;;;;;;;;;;;19.20;99.20;;;;;;5103229;28;19919;-74
2022/10/23 01:23:54;;;;;;;;;;;19.10;99.20;;;;;;5105068;28;19924;-80
2022/10/23 01:26:30;;;;;;;;;;;19.10;99.20;;;;;;5090239;28;20011;-81
2022/10/23 01:29:03;;;;;;;;;;;19.00;99.20;;;;;;5087835;28;19916;-81
2022/10/23 01:31:36;;;;;;;;;;;18.80;99.20;;;;;;5085902;28;19920;-81
2022/10/23 01:34:05;;;;;;;;;;;18.90;99.30;;;;;;5089038;28;19908;-82
2022/10/23 01:36:33;;;;;;;;;;;19.00;99.20;;;;;;5087983;28;19935;-83
2022/10/23 01:39:01;;;;;;;;;;;19.10;99.30;;;;;;5090063;28;19912;-83
2022/10/23 01:41:29;;;;;;;;;;;19.10;99.20;;;;;;5084041;28;20430;-86
2022/10/23 01:43:59;;;;;;;;;;;19.20;99.20;;;;;;5090449;28;19919;-85
2022/10/23 01:46:25;;;;;;;;;;;19.20;99.20;;;;;;5089869;28;19916;-83
2022/10/23 01:48:53;;;;;;;;;;;19.20;99.20;;;;;;5089898;28;19939;-86
2022/10/23 01:51:20;;;;;;;;;;;19.20;99.20;;;;;;5095415;28;19916;-88
2022/10/23 01:53:47;;;;;;;;;;;19.20;99.20;;;;;;5109908;28;20220;-86
2022/10/23 01:56:15;;;;;;;;;;;19.30;99.20;;;;;;5091414;28;19951;-86
2022/10/23 01:58:42;;;;;;;;;;;19.10;99.10;;;;;;5105758;28;20292;-85
2022/10/23 02:01:09;;;;;;;;;;;19.20;99.20;;;;;;5073057;28;20395;-85
2022/10/23 02:03:35;;;;;;;;;;;19.30;99.20;;;;;;5110276;28;20374;-86
2022/10/23 02:06:02;;;;;;;;;;;19.20;99.10;;;;;;5108670;28;19912;-84
2022/10/23 02:08:28;;;;;;;;;;;19.20;99.00;;;;;;5108845;28;19916;-84
2022/10/23 02:11:00;;;;;;;;;;;19.30;99.00;;;;;;5097962;28;19916;-82
2022/10/23 02:13:26;;;;;;;;;;;19.40;99.00;;;;;;5067720;28;19920;-85
2022/10/23 02:15:57;;;;;;;;;;;19.30;98.80;;;;;;5101330;28;20014;-85
2022/10/23 02:18:27;;;;;;;;;;;19.50;98.90;;;;;;5106551;28;19907;-86
2022/10/23 02:21:13;;;;;;;;;;;19.50;98.90;;;;;;5071279;28;19999;-85
2022/10/23 02:23:40;;;;;;;;;;;19.50;98.80;;;;;;5090288;28;20005;-85
2022/10/23 02:26:06;;;;;;;;;;;19.40;98.70;;;;;;5102398;28;20077;-86
2022/10/23 02:28:34;;;;;;;;;;;19.30;98.60;;;;;;5107287;28;19923;-87
2022/10/23 02:31:01;;;;;;;;;;;19.50;98.70;;;;;;5108645;28;19970;-85
2022/10/23 02:33:27;;;;;;;;;;;19.60;98.80;;;;;;5108364;28;19972;-87
2022/10/23 02:35:54;;;;;;;;;;;19.70;98.80;;;;;;5090037;28;19912;-85
2022/10/23 02:38:28;;;;;;;;;;;19.60;98.60;;;;;;5103131;28;19915;-85
2022/10/23 02:40:55;;;;;;;;;;;19.60;98.60;;;;;;5106139;28;19917;-85
2022/10/23 02:43:24;;;;;;;;;;;19.60;98.70;;;;;;5094263;28;20285;-84
2022/10/23 02:45:51;;;;;;;;;;;19.40;98.40;;;;;;5112207;28;20361;-86
2022/10/23 02:48:18;;;;;;;;;;;19.60;98.80;;;;;;5111288;28;19912;-83
2022/10/23 02:50:53;;;;;;;;;;;19.50;98.60;;;;;;5112682;28;19916;-83
2022/10/23 02:53:20;;;;;;;;;;;19.60;98.70;;;;;;5113029;28;19911;-85
2022/10/23 02:56:05;;;;;;;;;;;19.70;98.80;;;;;;5113247;28;19911;-84
2022/10/23 02:58:34;;;;;;;;;;;19.70;98.70;;;;;;5112659;28;20343;-85
2022/10/23 03:01:14;;;;;;;;;;;19.70;98.70;;;;;;5109688;28;19911;-83
2022/10/23 03:03:45;;;;;;;;;;;19.70;98.60;;;;;;5113206;28;19999;-84
2022/10/23 03:06:12;;;;;;;;;;;19.70;98.60;;;;;;5111465;28;19922;-83
2022/10/23 03:08:45;;;;;;;;;;;19.70;98.60;;;;;;5111524;28;20297;-82
2022/10/23 03:11:12;;;;;;;;;;;19.70;98.60;;;;;;5111339;28;19912;-86
2022/10/23 03:13:38;;;;;;;;;;;19.80;98.60;;;;;;5113014;28;19911;-81
2022/10/23 03:16:05;;;;;;;;;;;19.80;98.70;;;;;;5113237;28;19912;-83
2022/10/23 03:18:31;;;;;;;;;;;19.70;98.50;;;;;;5112640;28;19919;-86
2022/10/23 03:20:58;;;;;;;;;;;19.70;98.60;;;;;;5094068;27;20391;-84
2022/10/23 03:23:24;;;;;;;;;;;19.60;98.50;;;;;;5100688;28;19927;-83
2022/10/23 03:25:51;;;;;;;;;;;19.70;98.70;;;;;;5105471;28;19916;-86
2022/10/23 03:28:18;;;;;;;;;;;19.50;98.60;;;;;;5109945;28;20170;-86
2022/10/23 03:30:45;;;;;;;;;;;19.60;98.80;;;;;;5097379;28;19920;-86
2022/10/23 03:33:11;;;;;;;;;;;19.30;98.30;;;;;;5107418;28;19912;-85
2022/10/23 03:35:38;;;;;;;;;;;19.30;98.50;;;;;;5098154;28;20425;-86
2022/10/23 03:38:04;;;;;;;;;;;19.10;98.50;;;;;;5104377;28;19916;-85
2022/10/23 03:40:31;;;;;;;;;;;19.10;98.40;;;;;;5111603;28;20377;-86
2022/10/23 03:42:58;;;;;;;;;;;19.00;98.50;;;;;;5109950;28;20004;-83
2022/10/23 03:45:24;;;;;;;;;;;18.90;98.40;;;;;;5098005;28;20501;-84
2022/10/23 03:47:51;;;;;;;;;;;19.00;98.70;;;;;;5105878;28;19967;-83
2022/10/23 03:50:18;;;;;;;;;;;19.00;98.50;;;;;;5084275;28;19931;-82
2022/10/23 03:52:44;;;;;;;;;;;18.90;98.40;;;;;;5110569;28;19912;-82
2022/10/23 03:55:11;;;;;;;;;;;19.20;98.70;;;;;;5106150;28;20532;-86
2022/10/23 03:57:37;;;;;;;;;;;19.10;98.50;;;;;;5098637;28;20415;-83
2022/10/23 04:00:05;;;;;;;;;;;19.00;98.60;;;;;;5106078;28;19961;-81
2022/10/23 04:02:32;;;;;;;;;;;18.90;98.40;;;;;;5111352;28;20446;-78
2022/10/23 04:04:58;;;;;;;;;;;18.80;98.40;;;;;;5087031;28;19916;-78
2022/10/23 04:07:25;;;;;;;;;;;18.80;98.20;;;;;;5095770;28;19939;-84
2022/10/23 04:09:51;;;;;;;;;;;18.80;97.80;;;;;;5099910;28;19924;-81
2022/10/23 04:12:18;;;;;;;;;;;18.80;97.40;;;;;;5102615;28;19989;-82
2022/10/23 04:14:45;;;;;;;;;;;19.00;97.20;;;;;;5100902;28;19915;-77
2022/10/23 04:17:11;;;;;;;;;;;18.80;96.00;;;;;;5097638;28;19916;-78
2022/10/23 04:19:38;;;;;;;;;;;18.90;95.70;;;;;;5103724;28;20286;-79
2022/10/23 04:22:05;;;;;;;;;;;19.00;95.40;;;;;;5102660;27;19977;-76
2022/10/23 04:24:31;;;;;;;;;;;19.00;94.70;;;;;;5120823;27;19932;-77
2022/10/23 04:26:58;;;;;;;;;;;19.00;94.90;;;;;;5119242;27;19923;-76
2022/10/23 04:29:24;;;;;;;;;;;19.10;94.40;;;;;;5120697;27;20401;-77
2022/10/23 04:31:51;;;;;;;;;;;19.10;94.00;;;;;;5094258;28;19938;-72
2022/10/23 04:34:18;;;;;;;;;;;19.20;94.10;;;;;;5106677;28;19919;-76
2022/10/23 04:36:44;;;;;;;;;;;19.30;94.00;;;;;;5106833;28;19959;-78
2022/10/23 04:39:11;;;;;;;;;;;19.20;93.60;;;;;;5102964;28;20360;-73
2022/10/23 04:41:38;;;;;;;;;;;19.30;93.80;;;;;;5107798;28;20411;-77
2022/10/23 04:44:05;;;;;;;;;;;19.30;93.40;;;;;;5106308;28;19970;-76
2022/10/23 04:46:31;;;;;;;;;;;19.30;93.60;;;;;;5107155;28;19924;-78
2022/10/23 04:48:58;;;;;;;;;;;19.30;93.20;;;;;;5108212;28;20509;-77
2022/10/23 04:51:24;;;;;;;;;;;19.30;93.20;;;;;;5116276;27;19912;-78
2022/10/23 04:53:51;;;;;;;;;;;19.40;93.30;;;;;;5099595;27;19916;-80
2022/10/23 04:56:18;;;;;;;;;;;19.30;92.80;;;;;;5109404;27;19951;-78
2022/10/23 04:58:44;;;;;;;;;;;19.30;92.30;;;;;;5102444;27;19972;-76
2022/10/23 05:01:11;;;;;;;;;;;19.30;91.90;;;;;;5110824;27;20018;-80
2022/10/23 05:03:38;;;;;;;;;;;19.30;91.20;;;;;;5108229;28;19916;-77
2022/10/23 05:06:04;;;;;;;;;;;19.20;91.50;;;;;;5110077;28;19911;-79
2022/10/23 05:08:31;;;;;;;;;;;19.20;91.10;;;;;;5108836;28;19920;-76
2022/10/23 05:10:58;;;;;;;;;;;19.20;90.50;;;;;;5103688;28;19926;-76
2022/10/23 05:13:24;;;;;;;;;;;19.20;90.50;;;;;;5108823;28;19912;-85
2022/10/23 05:15:53;;;;;;;;;;;19.20;91.00;;;;;;5110837;28;20319;-78
2022/10/23 05:18:32;;;;;;;;;;;19.30;90.70;;;;;;5110156;28;20061;-79
2022/10/23 05:21:01;;;;;;;;;;;19.30;90.50;;;;;;5085522;28;19924;-78
2022/10/23 05:23:27;;;;;;;;;;;19.30;90.00;;;;;;5084881;28;20306;-77
2022/10/23 05:25:54;;;;;;;;;;;19.30;90.00;;;;;;5088166;28;19919;-80
2022/10/23 05:28:20;;;;;;;;;;;19.30;90.10;;;;;;5106912;28;19916;-78
2022/10/23 05:30:47;;;;;;;;;;;19.30;90.20;;;;;;5110124;28;19950;-78
2022/10/23 05:33:14;;;;;;;;;;;19.40;89.70;;;;;;5109163;28;20384;-79
2022/10/23 05:35:41;;;;;;;;;;;19.30;89.80;;;;;;5099879;28;19924;-80
2022/10/23 05:38:07;;;;;;;;;;;19.30;89.80;;;;;;5107275;28;19920;-76
2022/10/23 05:40:34;;;;;;;;;;;19.40;89.60;;;;;;5091293;28;19926;-80
2022/10/23 05:43:00;;;;;;;;;;;19.40;89.60;;;;;;5101491;28;20465;-81
2022/10/23 05:45:27;;;;;;;;;;;19.40;89.50;;;;;;5099652;28;19976;-82
2022/10/23 05:47:54;;;;;;;;;;;19.30;89.30;;;;;;5109875;28;19919;-76
2022/10/23 05:50:20;;;;;;;;;;;19.30;89.50;;;;;;5109119;28;19928;-76
2022/10/23 05:52:47;;;;;;;;;;;19.30;89.50;;;;;;5094863;28;19915;-81
2022/10/23 05:55:14;;;;;;;;;;;19.30;89.90;;;;;;5097670;28;20286;-80
2022/10/23 05:57:41;;;;;;;;;;;19.30;89.90;;;;;;5114916;28;20018;-81
2022/10/23 06:00:08;;;;;;;;;;;19.40;90.10;;;;;;5128113;28;19912;-77
2022/10/23 06:02:34;;;;;;;;;;;19.40;89.80;;;;;;5086139;28;19916;-79
2022/10/23 06:05:01;;;;;;;;;;;19.50;89.70;;;;;;5104027;28;19912;-82
2022/10/23 06:07:28;;;;;;;;;;;19.40;89.70;;;;;;5094850;28;19911;-80
2022/10/23 06:09:54;;;;;;;;;;;19.40;89.70;;;;;;5101574;28;19924;-76
2022/10/23 06:12:21;;;;;;;;;;;19.40;90.00;;;;;;5097758;28;19916;-80
2022/10/23 06:14:48;;;;;;;;;;;19.30;89.30;;;;;;5076019;27;19915;-82
2022/10/23 06:17:15;;;;;;;;;;;19.30;89.40;;;;;;5116059;27;19970;-79
2022/10/23 06:19:42;;;;;;;;;;;19.20;89.60;;;;;;5102535;27;19919;-75
2022/10/23 06:22:09;;;;;;;;;;;19.30;89.70;;;;;;5132021;27;19962;-79
2022/10/23 06:24:36;;;;;;;;;;;19.30;89.80;;;;;;5103288;28;19916;-75
2022/10/23 06:27:02;;;;;;;;;;;19.30;89.40;;;;;;5114494;27;19911;-75
2022/10/23 06:29:29;;;;;;;;;;;19.30;89.40;;;;;;5119526;27;19951;-78
2022/10/23 06:31:56;;;;;;;;;;;19.30;89.60;;;;;;5099370;27;20305;-80
2022/10/23 06:34:22;;;;;;;;;;;19.30;89.20;;;;;;5094665;27;19916;-77
2022/10/23 06:36:49;;;;;;;;;;;19.30;89.20;;;;;;5124934;27;19912;-74
2022/10/23 06:39:15;;;;;;;;;;;19.30;89.40;;;;;;5121259;27;19948;-74
2022/10/23 06:41:44;;;;;;;;;;;19.30;89.20;;;;;;5107230;27;19916;-78
2022/10/23 06:44:10;;;;;;;;;;;19.30;89.20;;;;;;5126267;27;20034;-78
2022/10/23 06:46:37;;;;;;;;;;;19.30;89.30;;;;;;5113964;27;19920;-78
2022/10/23 06:49:03;;;;;;;;;;;19.30;89.30;;;;;;5113288;27;19974;-80
2022/10/23 06:51:30;;;;;;;;;;;19.30;89.00;;;;;;5103509;27;19924;-77
2022/10/23 06:53:57;;;;;;;;;;;19.30;89.10;;;;;;5113222;27;19962;-77
2022/10/23 06:56:27;;;;;;;;;;;19.30;89.30;;;;;;5133020;27;19918;-77
2022/10/23 06:58:54;;;;;;;;;;;19.30;89.20;;;;;;5125594;27;20327;-75
2022/10/23 07:01:21;;;;;;;;;;;19.30;89.00;;;;;;5121537;27;19919;-77
2022/10/23 07:03:48;;;;;;;;;;;19.30;89.80;;;;;;5097740;27;20336;-74
2022/10/23 07:06:14;;;;;;;;;;;19.30;89.90;;;;;;5109372;27;19912;-77
2022/10/23 07:08:41;;;;;;;;;;;19.30;90.00;;;;;;5097363;28;19916;-76
2022/10/23 07:11:08;;;;;;;;;;;19.30;90.10;;;;;;5127590;27;19915;-77
2022/10/23 07:13:35;;;;;;;;;;;19.30;90.10;;;;;;5125094;27;19932;-80
2022/10/23 07:16:14;;;;;;;;;;;19.30;89.80;;;;;;5110238;27;19911;-79
2022/10/23 07:18:41;;;;;;;;;;;19.20;90.10;;;;;;5103518;27;19919;-80
2022/10/23 07:21:08;;;;;;;;;;;19.20;89.80;;;;;;5119324;27;20323;-79
2022/10/23 07:23:34;;;;;;;;;;;19.30;89.90;;;;;;5127269;27;19978;-78
2022/10/23 07:26:08;;;;;;;;;;;19.20;89.60;;;;;;5105246;27;19911;-79
2022/10/23 07:28:35;;;;;;;;;;;19.20;90.10;;;;;;5107399;27;20018;-78
2022/10/23 07:31:01;;;;;;;;;;;19.20;89.90;;;;;;5119572;27;19969;-80
2022/10/23 07:33:28;;;;;;;;;;;19.10;90.20;;;;;;5128699;27;20030;-80
2022/10/23 07:35:55;;;;;;;;;;;19.00;90.30;;;;;;5133027;27;19911;-75
2022/10/23 07:38:21;;;;;;;;;;;19.00;90.30;;;;;;5126483;27;19927;-78
2022/10/23 07:40:48;;;;;;;;;;;19.00;90.50;;;;;;5107045;27;19918;-79
2022/10/23 07:43:17;;;;;;;;;;;18.90;90.90;;;;;;5124059;27;19916;-78
2022/10/23 07:45:46;;;;;;;;;;;19.00;90.70;;;;;;5131740;27;19918;-79
2022/10/23 07:48:12;;;;;;;;;;;18.90;90.70;;;;;;5109603;27;19912;-80
2022/10/23 07:50:39;;;;;;;;;;;18.90;90.70;;;;;;5102459;27;19974;-81
2022/10/23 07:53:05;;;;;;;;;;;19.00;90.90;;;;;;5112739;27;20047;-80
2022/10/23 07:55:32;;;;;;;;;;;18.90;90.80;;;;;;5102491;28;19965;-81
2022/10/23 07:57:59;;;;;;;;;;;18.90;90.70;;;;;;5109911;27;20016;-81
2022/10/23 08:00:25;;;;;;;;;;;18.80;90.80;;;;;;5105923;27;19938;-79
2022/10/23 08:02:52;;;;;;;;;;;18.80;90.90;;;;;;5112776;27;19996;-77
2022/10/23 08:05:19;;;;;;;;;;;18.70;90.80;;;;;;5103158;28;19923;-77
2022/10/23 08:07:45;;;;;;;;;;;18.80;91.10;;;;;;5108613;28;19912;-77
2022/10/23 08:10:12;;;;;;;;;;;18.80;91.00;;;;;;5111685;28;20386;-77
2022/10/23 08:12:39;;;;;;;;;;;18.70;91.00;;;;;;5110826;28;19916;-76
2022/10/23 08:15:05;;;;;;;;;;;18.80;91.20;;;;;;5106765;28;20373;-79
2022/10/23 08:17:32;;;;;;;;;;;18.70;91.30;;;;;;5105777;28;19916;-73
2022/10/23 08:19:59;;;;;;;;;;;18.70;91.40;;;;;;5108190;28;19919;-78
2022/10/23 08:22:25;;;;;;;;;;;18.80;91.50;;;;;;5110393;28;19915;-78
2022/10/23 08:24:52;;;;;;;;;;;18.70;91.50;;;;;;5109616;28;20006;-79
2022/10/23 08:27:18;;;;;;;;;;;18.80;91.60;;;;;;5110973;28;19922;-78
2022/10/23 08:29:45;;;;;;;;;;;18.80;91.60;;;;;;5108300;28;19920;-79
2022/10/23 08:32:12;;;;;;;;;;;18.80;91.60;;;;;;5105983;28;20046;-79
2022/10/23 08:34:38;;;;;;;;;;;18.80;91.50;;;;;;5109697;28;20397;-78
2022/10/23 08:37:05;;;;;;;;;;;18.80;91.60;;;;;;5095080;28;20298;-79
2022/10/23 08:39:31;;;;;;;;;;;18.80;91.60;;;;;;5103521;28;20377;-78
2022/10/23 08:41:58;;;;;;;;;;;18.80;91.70;;;;;;5103566;28;19926;-78
2022/10/23 08:44:30;;;;;;;;;;;18.80;91.80;;;;;;5108523;28;19916;-78
2022/10/23 08:47:04;;;;;;;;;;;18.80;91.80;;;;;;5109798;28;20065;-78
2022/10/23 08:49:40;;;;;;;;;;;18.80;91.80;;;;;;5084648;28;19988;-77
2022/10/23 08:52:19;;;;;;;;;;;18.80;91.90;;;;;;5118911;27;19923;-77
2022/10/23 08:54:49;;;;;;;;;;;18.90;91.90;;;;;;5085104;27;19915;-74
2022/10/23 08:57:16;;;;;;;;;;;18.80;91.90;;;;;;5131616;27;19911;-73
2022/10/23 08:59:43;;;;;;;;;;;18.80;91.90;;;;;;5115874;27;19911;-73
2022/10/23 09:02:12;;;;;;;;;;;18.80;91.90;;;;;;5123275;27;20289;-76
2022/10/23 09:04:39;;;;;;;;;;;18.80;91.90;;;;;;5107690;27;20297;-79
2022/10/23 09:07:12;;;;;;;;;;;18.80;91.90;;;;;;5077590;28;19954;-74
2022/10/23 09:09:48;;;;;;;;;;;18.80;91.80;;;;;;5095694;27;19924;-73
2022/10/23 09:12:24;;;;;;;;;;;18.90;91.80;;;;;;5112875;27;19918;-77
2022/10/23 09:15:02;;;;;;;;;;;18.90;91.80;;;;;;5117529;27;20299;-75
2022/10/23 09:17:28;;;;;;;;;;;18.90;91.80;;;;;;5112939;27;19937;-74
2022/10/23 09:20:01;;;;;;;;;;;18.90;91.80;;;;;;5115956;27;20404;-72
2022/10/23 09:22:27;;;;;;;;;;;18.90;91.80;;;;;;5107128;28;19916;-73
2022/10/23 09:24:54;;;;;;;;;;;19.00;91.90;;;;;;5097546;28;20341;-73
2022/10/23 09:27:21;;;;;;;;;;;19.00;92.00;;;;;;5109272;28;19941;-72
2022/10/23 09:29:48;;;;;;;;;;;18.90;92.00;;;;;;5107034;28;20009;-75
2022/10/23 09:32:15;;;;;;;;;;;19.00;92.00;;;;;;5101291;28;20034;-72
2022/10/23 09:34:49;;;;;;;;;;;18.90;91.90;;;;;;5103009;28;19927;-77
2022/10/23 09:37:23;;;;;;;;;;;19.00;91.90;;;;;;5104518;28;19950;-78
2022/10/23 09:40:00;;;;;;;;;;;19.00;91.90;;;;;;5096186;28;19919;-77
2022/10/23 09:42:27;;;;;;;;;;;19.00;92.00;;;;;;5096356;28;19911;-76
2022/10/23 09:44:54;;;;;;;;;;;19.00;92.00;;;;;;5109532;28;19915;-76
2022/10/23 09:47:22;;;;;;;;;;;19.00;92.00;;;;;;5092015;28;20014;-76
2022/10/23 09:49:53;;;;;;;;;;;19.00;91.90;;;;;;5110836;28;19962;-77
2022/10/23 09:52:35;;;;;;;;;;;19.00;91.80;;;;;;5101155;28;19952;-76
2022/10/23 09:55:02;;;;;;;;;;;19.00;91.70;;;;;;5094395;28;19947;-76
2022/10/23 09:57:42;;;;;;;;;;;19.00;91.60;;;;;;5090636;28;19968;-77
2022/10/23 10:00:14;;;;;;;;;;;19.00;91.60;;;;;;5084119;28;20397;-76
2022/10/23 10:02:42;;;;;;;;;;;18.90;91.50;;;;;;5115373;28;19939;-76
2022/10/23 10:05:24;;;;;;;;;;;19.00;91.60;;;;;;5114450;28;19907;-74
2022/10/23 10:08:03;;;;;;;;;;;18.90;91.40;;;;;;5128106;28;19916;-75
2022/10/23 10:10:32;;;;;;;;;;;18.90;91.40;;;;;;5094115;28;19928;-77
2022/10/23 10:13:00;;;;;;;;;;;18.90;91.40;;;;;;5084655;28;20377;-77
2022/10/23 10:15:27;;;;;;;;;;;18.90;91.50;;;;;;5097659;28;19926;-76
2022/10/23 10:17:56;;;;;;;;;;;18.90;91.60;;;;;;5122201;28;20281;-76
2022/10/23 10:20:29;;;;;;;;;;;18.90;91.60;;;;;;5092588;28;19934;-76
2022/10/23 10:22:58;;;;;;;;;;;18.90;91.50;;;;;;5111755;28;19924;-77
2022/10/23 10:25:45;;;;;;;;;;;18.90;91.50;;;;;;5118232;28;19912;-77
2022/10/23 10:28:27;;;;;;;;;;;18.90;91.40;;;;;;5096961;28;19908;-76
2022/10/23 10:31:02;;;;;;;;;;;18.90;91.50;;;;;;5112530;28;19920;-76
2022/10/23 10:33:47;;;;;;;;;;;18.90;91.60;;;;;;5105453;28;19916;-77
2022/10/23 10:36:32;;;;;;;;;;;18.80;91.50;;;;;;5103437;28;19912;-77
2022/10/23 10:39:02;;;;;;;;;;;18.80;91.60;;;;;;5117164;27;20002;-76
2022/10/23 10:41:49;;;;;;;;;;;18.80;91.70;;;;;;5108675;28;20378;-77
2022/10/23 10:44:26;;;;;;;;;;;18.80;92.00;;;;;;5064772;28;19912;-76
2022/10/23 10:46:56;;;;;;;;;;;18.80;92.10;;;;;;5093599;28;19915;-77
2022/10/23 10:49:29;;;;;;;;;;;18.80;92.10;;;;;;5104005;28;19918;-76
2022/10/23 10:52:10;;;;;;;;;;;18.80;92.40;;;;;;5118428;28;19926;-76
2022/10/23 10:54:57;;;;;;;;;;;18.80;92.50;;;;;;5093975;28;19912;-76
2022/10/23 10:57:26;;;;;;;;;;;18.80;92.60;;;;;;5112041;28;19990;-77
2022/10/23 10:59:53;;;;;;;;;;;18.80;92.70;;;;;;5099805;28;19908;-76
2022/10/23 11:02:26;;;;;;;;;;;18.80;92.80;;;;;;5115368;28;19912;-77
2022/10/23 11:04:56;;;;;;;;;;;18.80;92.90;;;;;;5117043;27;19935;-76
2022/10/23 11:07:24;;;;;;;;;;;18.80;92.90;;;;;;5099646;27;19908;-76
2022/10/23 11:09:51;;;;;;;;;;;18.80;93.00;;;;;;5080825;28;20297;-76
2022/10/23 11:12:19;;;;;;;;;;;18.80;93.00;;;;;;5093720;28;19927;-76
2022/10/23 11:14:46;;;;;;;;;;;18.80;93.00;;;;;;5115479;27;20011;-76
2022/10/23 11:17:16;;;;;;;;;;;18.80;93.10;;;;;;5119213;27;20441;-77
2022/10/23 11:19:42;;;;;;;;;;;18.80;93.20;;;;;;5123402;27;19908;-77
2022/10/23 11:22:24;;;;;;;;;;;18.80;93.20;;;;;;5114282;28;20408;-76
2022/10/23 11:24:54;;;;;;;;;;;18.80;93.30;;;;;;5090270;28;20370;-76
2022/10/23 11:27:25;;;;;;;;;;;18.80;93.30;;;;;;5121524;27;19930;-76
2022/10/23 11:30:10;;;;;;;;;;;18.80;93.40;;;;;;5107624;27;19922;-76
2022/10/23 11:32:47;;;;;;;;;;;18.80;93.50;;;;;;5130294;27;19915;-77
2022/10/23 11:35:14;;;;;;;;;;;18.80;93.40;;;;;;5124948;27;20003;-77
2022/10/23 11:37:41;;;;;;;;;;;18.80;93.50;;;;;;5126746;27;19907;-77
2022/10/23 11:40:07;;;;;;;;;;;18.80;93.50;;;;;;5109686;27;19959;-77
2022/10/23 11:42:45;;;;;;;;;;;18.80;93.50;;;;;;5126631;27;20390;-77
2022/10/23 11:45:27;;;;;;;;;;;18.80;93.50;;;;;;5110687;27;19907;-77
2022/10/23 11:48:16;;;;;;;;;;;18.80;93.30;;;;;;5115629;27;19961;-75
2022/10/23 11:50:43;;;;;;;;;;;18.90;93.00;;;;;;5086447;27;20014;-75
2022/10/23 11:53:25;;;;;;;;;;;18.90;92.90;;;;;;5135558;27;19908;-74
2022/10/23 11:55:56;;;;;;;;;;;18.90;92.90;;;;;;5135372;27;19907;-75
2022/10/23 11:58:25;;;;;;;;;;;19.00;92.80;;;;;;5105793;28;19934;-75
2022/10/23 12:00:58;;;;;;;;;;;19.00;92.80;;;;;;5095184;28;19945;-75
2022/10/23 12:03:45;;;;;;;;;;;19.00;92.80;;;;;;5117123;27;19942;-75
2022/10/23 12:06:17;;;;;;;;;;;19.00;92.80;;;;;;5113216;27;19941;-75
2022/10/23 12:08:44;;;;;;;;;;;19.00;92.80;;;;;;5134872;27;19907;-75
2022/10/23 12:11:27;;;;;;;;;;;19.00;92.90;;;;;;5116418;27;19908;-75
2022/10/23 12:13:53;;;;;;;;;;;19.00;92.90;;;;;;5115975;27;19915;-75
2022/10/23 12:16:20;;;;;;;;;;;19.10;92.90;;;;;;5134942;27;19912;-75
2022/10/23 12:18:53;;;;;;;;;;;19.10;92.90;;;;;;5134982;27;19911;-75
2022/10/23 12:21:21;;;;;;;;;;;19.10;92.90;;;;;;5134655;27;19915;-75
2022/10/23 12:23:50;;;;;;;;;;;19.10;92.90;;;;;;5134752;27;19920;-75
2022/10/23 12:26:20;;;;;;;;;;;19.10;92.90;;;;;;5134809;27;20426;-75
2022/10/23 12:29:09;;;;;;;;;;;19.10;93.00;;;;;;5106550;27;20284;-75
2022/10/23 12:31:43;;;;;;;;;;;19.20;93.00;;;;;;5116403;27;19923;-75
2022/10/23 12:34:12;;;;;;;;;;;19.10;93.00;;;;;;5116667;27;19950;-74
2022/10/23 12:36:48;;;;;;;;;;;19.20;92.90;;;;;;5134788;27;20365;-75
2022/10/23 17:32:11;;;;;;;;;;;17.30;97.50;;;;;;5080796;28;19981;-75
2022/10/23 17:34:38;;;;;;;;;;;17.40;97.60;;;;;;5095041;28;19916;-75
2022/10/23 17:37:04;;;;;;;;;;;17.30;97.40;;;;;;5110428;28;19969;-74
2022/10/23 17:39:31;;;;;;;;;;;17.30;97.50;;;;;;5085399;28;19919;-75
2022/10/23 17:41:57;;;;;;;;;;;17.30;97.30;;;;;;5083350;28;19912;-75
2022/10/23 17:44:24;;;;;;;;;;;17.30;97.20;;;;;;5092886;28;19909;-75
2022/10/23 17:46:52;;;;;;;;;;;17.20;97.10;;;;;;5093183;28;19909;-75
2022/10/23 17:49:19;;;;;;;;;;;17.20;97.00;;;;;;5092219;28;19916;-75
2022/10/23 17:51:45;;;;;;;;;;;17.20;97.10;;;;;;5093527;28;20544;-75
2022/10/23 17:54:13;;;;;;;;;;;17.10;96.90;;;;;;5092836;28;19995;-77
2022/10/23 17:56:40;;;;;;;;;;;17.10;96.90;;;;;;5095926;28;19908;-78
2022/10/23 17:59:08;;;;;;;;;;;17.10;96.90;;;;;;5100059;28;19908;-77
2022/10/23 18:01:34;;;;;;;;;;;17.10;97.00;;;;;;5092679;28;20019;-77
2022/10/23 18:04:02;;;;;;;;;;;17.20;97.00;;;;;;5087735;28;19923;-77
2022/10/23 18:06:30;;;;;;;;;;;17.10;96.90;;;;;;5093416;28;20381;-77
2022/10/23 18:08:57;;;;;;;;;;;17.20;97.00;;;;;;5093048;28;19908;-77
2022/10/23 18:11:25;;;;;;;;;;;17.20;97.00;;;;;;5090383;28;19916;-77
2022/10/23 18:13:52;;;;;;;;;;;17.20;97.10;;;;;;5097893;28;19915;-76
2022/10/23 18:16:18;;;;;;;;;;;17.10;96.90;;;;;;5094975;28;19915;-76
2022/10/23 18:18:48;;;;;;;;;;;17.10;97.00;;;;;;5095893;28;19908;-76
2022/10/23 18:21:15;;;;;;;;;;;17.10;97.10;;;;;;5094047;28;19920;-75
2022/10/23 18:23:41;;;;;;;;;;;17.10;97.00;;;;;;5094987;28;20250;-76
2022/10/23 18:26:14;;;;;;;;;;;17.20;97.00;;;;;;5093874;28;19908;-76
2022/10/23 18:28:41;;;;;;;;;;;17.10;97.10;;;;;;5094640;28;20254;-76
2022/10/23 18:31:09;;;;;;;;;;;17.20;97.20;;;;;;5094712;28;20336;-77
2022/10/23 18:33:35;;;;;;;;;;;17.20;97.20;;;;;;5095421;28;20354;-76
2022/10/23 18:36:02;;;;;;;;;;;17.20;97.20;;;;;;5095959;28;19908;-76
2022/10/23 18:38:29;;;;;;;;;;;17.20;97.10;;;;;;5094375;28;19994;-76
2022/10/23 18:40:55;;;;;;;;;;;17.20;97.10;;;;;;5095383;28;19908;-76
2022/10/23 18:43:23;;;;;;;;;;;17.20;97.20;;;;;;5094698;28;19908;-76
2022/10/23 18:45:49;;;;;;;;;;;17.20;97.20;;;;;;5094657;28;19919;-77
2022/10/23 18:48:16;;;;;;;;;;;17.30;97.20;;;;;;5095626;28;19912;-76
2022/10/23 18:50:43;;;;;;;;;;;17.30;97.30;;;;;;5095696;28;19979;-76
2022/10/23 18:53:09;;;;;;;;;;;17.30;97.20;;;;;;5095351;28;19912;-77
2022/10/23 18:55:36;;;;;;;;;;;17.30;97.20;;;;;;5095778;28;19951;-77
2022/10/23 18:58:02;;;;;;;;;;;17.30;97.20;;;;;;5095562;28;20320;-77
2022/10/23 19:00:29;;;;;;;;;;;17.30;97.30;;;;;;5112479;28;19912;-76
2022/10/23 19:02:56;;;;;;;;;;;17.30;97.20;;;;;;5116199;28;19915;-77
2022/10/23 19:05:22;;;;;;;;;;;17.30;97.30;;;;;;5115774;28;19947;-77
2022/10/23 19:07:49;;;;;;;;;;;17.30;97.30;;;;;;5114834;28;20285;-76
2022/10/23 19:10:18;;;;;;;;;;;17.30;97.30;;;;;;5115794;28;19916;-77
2022/10/23 19:12:44;;;;;;;;;;;17.30;97.30;;;;;;5115778;28;19915;-76
2022/10/23 19:15:11;;;;;;;;;;;17.30;97.30;;;;;;5115853;28;19908;-76
2022/10/23 19:17:38;;;;;;;;;;;17.40;97.30;;;;;;5114492;28;20438;-77
2022/10/23 19:20:05;;;;;;;;;;;17.30;97.40;;;;;;5115691;27;19915;-77